Time;durP1;ratioP1;P1;durP2;ratioP2;P2;SDS_P1;SDS_P2;PMS_P1;PMS_P2;Temp;Humidity;BMP_temperature;BMP_pressure;BME280_temperature;BME280_humidity;BME280_pressure;Samples;Min_cycle;Max_cycle;Signal;HPM_P1;HPM_P2
2023/09/07 00:00:20;;;;;;;7.43;4.10;;;;;;;;;;4935958;29;20675;-77
2023/09/07 00:02:46;;;;;;;11.27;5.45;;;;;;;;;;4955820;29;20558;-77
2023/09/07 00:05:13;;;;;;;7.60;4.13;;;;;;;;;;4926608;29;20095;-77
2023/09/07 00:07:38;;;;;;;7.22;4.35;;;;;;;;;;4967917;28;20039;-78
2023/09/07 00:10:04;;;;;;;8.98;4.07;;;;;;;;;;4929314;29;20035;-78
2023/09/07 00:12:31;;;;;;;9.98;4.22;;;;;;;;;;4959747;28;20551;-77
2023/09/07 00:15:00;;;;;;;6.72;4.00;;;;;;;;;;4942682;29;20082;-78
2023/09/07 00:17:25;;;;;;;8.98;3.80;;;;;;;;;;4960778;28;20031;-78
2023/09/07 00:19:58;;;;;;;15.38;4.70;;;;;;;;;;4958737;28;20027;-77
2023/09/07 00:22:32;;;;;;;6.95;4.13;;;;;;;;;;4969724;28;20046;-77
2023/09/07 00:25:06;;;;;;;7.68;4.53;;;;;;;;;;4958595;29;20058;-78
2023/09/07 00:27:33;;;;;;;8.05;4.40;;;;;;;;;;4959851;29;20027;-77
2023/09/07 00:29:59;;;;;;;8.93;4.38;;;;;;;;;;4944616;29;20027;-76
2023/09/07 00:32:25;;;;;;;7.25;4.68;;;;;;;;;;4943244;29;20050;-77
2023/09/07 00:34:50;;;;;;;10.30;4.20;;;;;;;;;;4958645;28;20463;-76
2023/09/07 00:37:16;;;;;;;7.10;4.25;;;;;;;;;;4931442;29;20031;-78
2023/09/07 00:39:41;;;;;;;6.45;4.07;;;;;;;;;;4951173;29;20052;-77
2023/09/07 00:42:07;;;;;;;8.43;4.18;;;;;;;;;;4946906;29;20082;-78
2023/09/07 00:44:35;;;;;;;7.88;4.40;;;;;;;;;;4947185;29;20028;-77
2023/09/07 00:47:01;;;;;;;6.90;4.63;;;;;;;;;;4960541;29;20106;-77
2023/09/07 00:49:27;;;;;;;8.35;4.05;;;;;;;;;;4927799;29;20086;-77
2023/09/07 00:51:53;;;;;;;9.88;4.47;;;;;;;;;;4934868;28;20493;-78
2023/09/07 00:54:19;;;;;;;6.28;4.13;;;;;;;;;;4949942;29;20447;-77
2023/09/07 00:56:45;;;;;;;9.05;4.15;;;;;;;;;;4957518;28;20031;-78
2023/09/07 00:59:11;;;;;;;7.13;4.50;;;;;;;;;;4955675;29;20050;-77
2023/09/07 01:01:37;;;;;;;13.20;4.55;;;;;;;;;;4939945;29;20046;-77
2023/09/07 01:04:06;;;;;;;8.50;4.47;;;;;;;;;;4924787;29;20031;-77
2023/09/07 01:06:45;;;;;;;6.85;4.40;;;;;;;;;;4955817;28;20035;-78
2023/09/07 01:09:15;;;;;;;8.68;3.78;;;;;;;;;;4955809;28;20035;-78
2023/09/07 01:11:40;;;;;;;6.28;4.03;;;;;;;;;;4923306;29;20127;-78
2023/09/07 01:14:06;;;;;;;9.38;3.95;;;;;;;;;;4955303;28;20054;-76
2023/09/07 01:16:35;;;;;;;8.77;4.13;;;;;;;;;;4955534;29;20036;-76
2023/09/07 01:19:01;;;;;;;8.40;4.25;;;;;;;;;;4954574;29;20023;-77
2023/09/07 01:21:28;;;;;;;7.00;4.40;;;;;;;;;;4922976;29;20041;-76
2023/09/07 01:23:54;;;;;;;8.13;4.10;;;;;;;;;;4940004;29;20027;-77
2023/09/07 01:26:20;;;;;;;8.60;4.50;;;;;;;;;;4938641;29;20042;-76
2023/09/07 01:28:45;;;;;;;5.65;3.83;;;;;;;;;;4940084;29;20042;-77
2023/09/07 01:31:11;;;;;;;8.15;4.15;;;;;;;;;;4954925;29;20019;-77
2023/09/07 01:33:37;;;;;;;8.25;4.15;;;;;;;;;;4955461;29;20027;-77
2023/09/07 01:36:02;;;;;;;7.95;4.25;;;;;;;;;;4944564;29;20037;-77
2023/09/07 01:38:29;;;;;;;8.85;4.63;;;;;;;;;;4935312;29;20087;-77
2023/09/07 01:40:55;;;;;;;7.07;4.40;;;;;;;;;;4937094;29;20039;-76
2023/09/07 01:43:20;;;;;;;7.90;4.55;;;;;;;;;;4943576;29;20365;-77
2023/09/07 01:45:46;;;;;;;8.18;4.40;;;;;;;;;;4958240;28;20035;-77
2023/09/07 01:48:15;;;;;;;8.70;4.40;;;;;;;;;;4952205;29;20026;-77
2023/09/07 01:50:41;;;;;;;8.63;4.45;;;;;;;;;;4939020;29;20035;-76
2023/09/07 01:53:07;;;;;;;9.90;4.88;;;;;;;;;;4953863;29;20027;-77
2023/09/07 01:55:32;;;;;;;9.40;4.60;;;;;;;;;;4954190;29;20042;-77
2023/09/07 01:57:59;;;;;;;9.27;4.90;;;;;;;;;;4954459;29;20427;-77
2023/09/07 02:00:25;;;;;;;7.35;4.63;;;;;;;;;;4944359;29;20068;-78
2023/09/07 02:02:50;;;;;;;10.07;5.03;;;;;;;;;;4943173;28;20489;-77
2023/09/07 02:05:16;;;;;;;7.80;4.72;;;;;;;;;;4925705;29;20063;-76
2023/09/07 02:07:43;;;;;;;8.68;4.55;;;;;;;;;;4934414;29;20115;-77
2023/09/07 02:10:08;;;;;;;7.18;4.57;;;;;;;;;;4962526;29;20027;-77
2023/09/07 02:12:34;;;;;;;7.57;4.45;;;;;;;;;;4964432;28;20143;-76
2023/09/07 02:15:01;;;;;;;8.82;5.07;;;;;;;;;;4950013;29;20495;-77
2023/09/07 02:17:27;;;;;;;8.45;4.75;;;;;;;;;;4960744;28;20068;-77
2023/09/07 02:19:53;;;;;;;9.38;5.15;;;;;;;;;;4940956;29;20039;-77
2023/09/07 02:22:18;;;;;;;8.75;4.85;;;;;;;;;;4941053;29;20065;-77
2023/09/07 02:24:44;;;;;;;8.75;5.07;;;;;;;;;;4960417;29;20043;-77
2023/09/07 02:27:09;;;;;;;11.18;4.65;;;;;;;;;;4960389;28;20057;-77
2023/09/07 02:29:35;;;;;;;7.03;4.57;;;;;;;;;;4953570;29;20038;-77
2023/09/07 02:32:01;;;;;;;8.48;4.90;;;;;;;;;;4954420;28;20039;-77
2023/09/07 02:34:26;;;;;;;10.88;4.88;;;;;;;;;;4954368;28;20039;-78
2023/09/07 02:36:52;;;;;;;8.23;5.28;;;;;;;;;;4956599;29;20066;-77
2023/09/07 02:39:18;;;;;;;9.13;4.97;;;;;;;;;;4953608;29;20039;-77
2023/09/07 02:41:45;;;;;;;9.38;6.30;;;;;;;;;;4937131;29;20399;-77
2023/09/07 02:44:12;;;;;;;10.43;6.03;;;;;;;;;;4922230;29;20035;-77
2023/09/07 02:46:37;;;;;;;13.07;5.50;;;;;;;;;;4931928;29;20040;-76
2023/09/07 02:49:03;;;;;;;8.77;5.20;;;;;;;;;;4942084;29;20023;-76
2023/09/07 02:51:29;;;;;;;11.10;5.50;;;;;;;;;;4954343;28;20023;-78
2023/09/07 02:53:56;;;;;;;8.70;5.05;;;;;;;;;;4954599;29;20360;-77
2023/09/07 02:56:22;;;;;;;10.45;6.05;;;;;;;;;;4931800;29;20094;-78
2023/09/07 02:58:48;;;;;;;10.07;5.32;;;;;;;;;;4958693;29;20031;-77
2023/09/07 03:01:13;;;;;;;8.23;5.00;;;;;;;;;;4943679;29;20051;-78
2023/09/07 03:03:41;;;;;;;14.70;5.43;;;;;;;;;;4957937;29;20039;-77
2023/09/07 03:06:10;;;;;;;10.70;5.53;;;;;;;;;;4944285;29;20035;-77
2023/09/07 03:08:40;;;;;;;10.05;5.63;;;;;;;;;;4938846;29;20403;-77
2023/09/07 03:11:06;;;;;;;13.15;5.18;;;;;;;;;;4958439;28;20030;-77
2023/09/07 03:13:32;;;;;;;10.07;5.35;;;;;;;;;;4959955;29;20031;-77
2023/09/07 03:15:58;;;;;;;10.07;5.53;;;;;;;;;;4961313;28;20557;-78
2023/09/07 03:18:24;;;;;;;9.73;6.55;;;;;;;;;;4940188;29;20031;-77
2023/09/07 03:20:50;;;;;;;10.27;6.47;;;;;;;;;;4959032;29;20039;-76
2023/09/07 03:23:16;;;;;;;13.00;7.80;;;;;;;;;;4942942;29;20036;-77
2023/09/07 03:25:42;;;;;;;9.65;6.30;;;;;;;;;;4954135;29;20027;-76
2023/09/07 03:28:07;;;;;;;10.63;5.85;;;;;;;;;;4961067;29;20034;-77
2023/09/07 03:30:35;;;;;;;15.75;8.48;;;;;;;;;;4935604;29;20484;-77
2023/09/07 03:33:03;;;;;;;12.27;5.72;;;;;;;;;;4937968;29;20032;-77
2023/09/07 03:35:29;;;;;;;8.25;5.30;;;;;;;;;;4953754;29;20027;-77
2023/09/07 03:37:54;;;;;;;9.68;5.75;;;;;;;;;;4953948;29;20035;-76
2023/09/07 03:40:20;;;;;;;12.35;6.25;;;;;;;;;;4951827;29;20034;-76
2023/09/07 03:42:46;;;;;;;11.40;5.85;;;;;;;;;;4940143;29;20063;-77
2023/09/07 03:45:12;;;;;;;9.77;5.93;;;;;;;;;;4957832;29;20118;-77
2023/09/07 03:47:38;;;;;;;11.63;5.53;;;;;;;;;;4943336;29;20052;-77
2023/09/07 03:50:04;;;;;;;9.93;5.75;;;;;;;;;;4954107;29;20098;-77
2023/09/07 03:52:31;;;;;;;9.60;6.13;;;;;;;;;;4958031;28;20068;-78
2023/09/07 03:55:02;;;;;;;9.07;5.70;;;;;;;;;;4941644;29;20074;-76
2023/09/07 03:57:28;;;;;;;12.88;6.40;;;;;;;;;;4960343;29;20090;-76
2023/09/07 03:59:55;;;;;;;10.43;5.85;;;;;;;;;;4941251;29;20038;-76
2023/09/07 04:02:21;;;;;;;9.57;5.80;;;;;;;;;;4932490;29;20059;-76
2023/09/07 04:04:51;;;;;;;11.27;5.90;;;;;;;;;;4954376;29;20035;-76
2023/09/07 04:07:17;;;;;;;10.60;6.28;;;;;;;;;;4924352;29;20135;-76
2023/09/07 04:09:44;;;;;;;9.93;5.82;;;;;;;;;;4938517;29;20059;-78
2023/09/07 04:12:10;;;;;;;9.68;6.03;;;;;;;;;;4943467;29;20055;-77
2023/09/07 04:14:35;;;;;;;11.63;6.22;;;;;;;;;;4956831;28;20428;-76
2023/09/07 04:17:01;;;;;;;8.57;5.32;;;;;;;;;;4957014;29;20523;-77
2023/09/07 04:19:26;;;;;;;14.32;6.07;;;;;;;;;;4957138;28;20039;-76
2023/09/07 04:21:52;;;;;;;10.02;6.18;;;;;;;;;;4913633;29;20040;-78
2023/09/07 04:24:18;;;;;;;10.68;6.15;;;;;;;;;;4920685;29;20040;-77
2023/09/07 04:26:44;;;;;;;8.68;5.85;;;;;;;;;;4948071;28;20036;-76
2023/09/07 04:29:11;;;;;;;11.70;6.57;;;;;;;;;;4954724;29;20150;-77
2023/09/07 04:31:37;;;;;;;15.60;10.00;;;;;;;;;;4923696;29;20046;-77
2023/09/07 04:34:03;;;;;;;9.45;6.32;;;;;;;;;;4939212;29;20027;-76
2023/09/07 04:36:29;;;;;;;11.57;6.32;;;;;;;;;;4954841;29;20072;-76
2023/09/07 04:38:54;;;;;;;11.63;7.75;;;;;;;;;;4940022;29;20047;-77
2023/09/07 04:41:20;;;;;;;16.83;6.22;;;;;;;;;;4973555;28;20035;-76
2023/09/07 04:43:46;;;;;;;11.90;6.90;;;;;;;;;;4955754;29;20031;-76
2023/09/07 04:46:12;;;;;;;12.55;6.85;;;;;;;;;;4956073;29;20035;-76
2023/09/07 04:48:38;;;;;;;10.48;6.53;;;;;;;;;;4959580;29;20062;-78
2023/09/07 04:51:05;;;;;;;14.68;7.65;;;;;;;;;;4963560;28;20034;-76
2023/09/07 04:53:32;;;;;;;11.48;7.03;;;;;;;;;;4965982;28;20030;-77
2023/09/07 04:55:59;;;;;;;16.00;7.63;;;;;;;;;;4948765;29;20094;-76
2023/09/07 04:58:25;;;;;;;14.88;7.55;;;;;;;;;;4963496;29;20042;-76
2023/09/07 05:00:51;;;;;;;14.18;8.27;;;;;;;;;;4945703;29;20039;-76
2023/09/07 05:03:17;;;;;;;15.40;7.47;;;;;;;;;;4939455;29;20117;-77
2023/09/07 05:05:43;;;;;;;16.50;8.20;;;;;;;;;;4930192;29;20035;-77
2023/09/07 05:08:09;;;;;;;17.10;10.65;;;;;;;;;;4929603;29;20471;-77
2023/09/07 05:10:35;;;;;;;13.95;7.40;;;;;;;;;;4935921;29;20059;-76
2023/09/07 05:13:00;;;;;;;11.68;6.90;;;;;;;;;;4919746;29;20424;-76
2023/09/07 05:15:26;;;;;;;14.90;7.47;;;;;;;;;;4926705;29;20078;-76
2023/09/07 05:17:52;;;;;;;10.65;6.68;;;;;;;;;;4954294;29;20070;-76
2023/09/07 05:20:17;;;;;;;10.43;6.60;;;;;;;;;;4929643;29;20039;-76
2023/09/07 05:22:43;;;;;;;13.38;7.13;;;;;;;;;;4952134;28;20419;-76
2023/09/07 05:25:09;;;;;;;11.75;6.55;;;;;;;;;;4954575;28;20038;-76
2023/09/07 05:27:36;;;;;;;12.05;7.15;;;;;;;;;;4938877;29;20027;-76
2023/09/07 05:30:02;;;;;;;13.35;7.57;;;;;;;;;;4929918;29;20063;-77
2023/09/07 05:32:27;;;;;;;12.60;6.85;;;;;;;;;;4953043;29;20391;-77
2023/09/07 05:34:53;;;;;;;13.73;7.15;;;;;;;;;;4942191;29;20042;-77
2023/09/07 05:37:19;;;;;;;12.02;7.57;;;;;;;;;;4959563;29;20118;-77
2023/09/07 05:39:45;;;;;;;16.58;7.18;;;;;;;;;;4931590;29;20046;-77
2023/09/07 05:42:12;;;;;;;19.77;11.85;;;;;;;;;;4961184;29;20479;-77
2023/09/07 05:44:38;;;;;;;13.10;7.47;;;;;;;;;;4931542;29;20019;-77
2023/09/07 05:47:04;;;;;;;14.15;7.10;;;;;;;;;;4946450;29;20038;-77
2023/09/07 05:49:30;;;;;;;13.57;7.18;;;;;;;;;;4964823;29;20034;-77
2023/09/07 05:51:56;;;;;;;11.13;6.95;;;;;;;;;;4946929;29;20190;-77
2023/09/07 05:54:23;;;;;;;13.70;7.20;;;;;;;;;;4955427;29;20058;-77
2023/09/07 05:56:48;;;;;;;16.10;8.52;;;;;;;;;;4940947;29;20093;-77
2023/09/07 05:59:14;;;;;;;12.20;6.80;;;;;;;;;;4946671;29;20035;-77
2023/09/07 06:01:40;;;;;;;14.75;7.05;;;;;;;;;;4954759;29;20038;-77
2023/09/07 06:04:08;;;;;;;12.85;7.25;;;;;;;;;;4964996;28;20042;-77
2023/09/07 06:06:34;;;;;;;;;;;;;;;;;;4962344;29;20035;-77
2023/09/07 06:09:00;;;;;;;9.75;7.05;;;;;;;;;;4952208;29;19910;-77
2023/09/07 06:11:25;;;;;;;14.68;9.60;;;;;;;;;;4962872;29;20102;-77
2023/09/07 06:13:51;;;;;;;12.15;7.38;;;;;;;;;;4956933;29;20051;-77
2023/09/07 06:16:17;;;;;;;10.82;6.65;;;;;;;;;;4946001;29;20119;-77
2023/09/07 06:18:43;;;;;;;11.50;7.28;;;;;;;;;;4937787;29;20468;-76
2023/09/07 06:21:08;;;;;;;11.68;6.78;;;;;;;;;;4955794;28;20039;-77
2023/09/07 06:23:34;;;;;;;13.95;7.97;;;;;;;;;;4956928;28;20059;-76
2023/09/07 06:26:00;;;;;;;14.70;6.93;;;;;;;;;;4953747;29;20038;-77
2023/09/07 06:28:25;;;;;;;10.70;6.22;;;;;;;;;;4953811;29;20476;-76
2023/09/07 06:30:51;;;;;;;14.88;8.18;;;;;;;;;;4936956;29;20031;-77
2023/09/07 06:33:21;;;;;;;13.82;7.05;;;;;;;;;;4953517;29;20078;-77
2023/09/07 06:35:46;;;;;;;13.32;6.90;;;;;;;;;;4924956;29;20035;-76
2023/09/07 06:38:12;;;;;;;13.45;6.47;;;;;;;;;;4937986;29;20142;-76
2023/09/07 06:40:38;;;;;;;10.98;6.45;;;;;;;;;;4937028;29;20419;-77
2023/09/07 06:43:05;;;;;;;11.70;6.10;;;;;;;;;;4934377;29;20042;-77
2023/09/07 06:45:37;;;;;;;14.73;6.88;;;;;;;;;;4941846;29;20090;-75
2023/09/07 06:48:03;;;;;;;14.05;8.27;;;;;;;;;;4937504;29;20047;-75
2023/09/07 06:50:29;;;;;;;13.43;7.38;;;;;;;;;;4955208;28;20138;-77
2023/09/07 06:52:55;;;;;;;13.20;6.10;;;;;;;;;;4959153;29;20039;-76
2023/09/07 06:55:22;;;;;;;9.77;5.50;;;;;;;;;;4926855;29;20039;-76
2023/09/07 06:57:47;;;;;;;11.40;5.88;;;;;;;;;;4934909;29;20035;-77
2023/09/07 07:00:13;;;;;;;10.55;5.78;;;;;;;;;;4957958;28;20031;-76
2023/09/07 07:02:39;;;;;;;7.97;5.25;;;;;;;;;;4956716;28;20051;-76
2023/09/07 07:05:05;;;;;;;14.50;5.70;;;;;;;;;;4923170;29;20035;-77
2023/09/07 07:07:31;;;;;;;8.80;4.95;;;;;;;;;;4944915;29;20476;-76
2023/09/07 07:09:57;;;;;;;12.00;4.70;;;;;;;;;;4956874;28;20031;-76
2023/09/07 07:12:23;;;;;;;9.50;5.40;;;;;;;;;;4949097;29;20035;-77
2023/09/07 07:14:50;;;;;;;11.77;5.78;;;;;;;;;;4956573;29;20129;-77
2023/09/07 07:17:16;;;;;;;8.27;4.80;;;;;;;;;;4925076;29;20028;-76
2023/09/07 07:19:42;;;;;;;11.73;6.30;;;;;;;;;;4934591;29;20020;-76
2023/09/07 07:22:08;;;;;;;21.10;11.05;;;;;;;;;;4951297;29;20035;-76
2023/09/07 07:24:34;;;;;;;8.68;5.07;;;;;;;;;;4959777;28;20041;-77
2023/09/07 07:27:00;;;;;;;9.43;5.13;;;;;;;;;;4941546;29;20035;-77
2023/09/07 07:29:28;;;;;;;9.73;4.82;;;;;;;;;;4956991;29;20106;-77
2023/09/07 07:31:54;;;;;;;10.07;4.90;;;;;;;;;;4929075;29;20118;-76
2023/09/07 07:34:19;;;;;;;10.25;4.82;;;;;;;;;;4951782;29;20059;-77
2023/09/07 07:36:45;;;;;;;15.27;5.20;;;;;;;;;;4925435;29;20495;-77
2023/09/07 07:39:11;;;;;;;9.80;5.05;;;;;;;;;;4941045;29;20027;-77
2023/09/07 07:41:39;;;;;;;11.07;5.07;;;;;;;;;;4928612;29;20059;-78
2023/09/07 07:44:05;;;;;;;9.05;4.40;;;;;;;;;;4952768;29;20039;-77
2023/09/07 07:46:30;;;;;;;11.95;4.72;;;;;;;;;;4943941;29;20380;-78
2023/09/07 07:48:56;;;;;;;10.82;4.60;;;;;;;;;;4914171;29;20034;-78
2023/09/07 07:51:22;;;;;;;11.00;4.28;;;;;;;;;;4946038;29;20039;-77
2023/09/07 07:53:50;;;;;;;9.35;4.57;;;;;;;;;;4930329;29;20040;-77
2023/09/07 07:56:18;;;;;;;13.48;5.43;;;;;;;;;;4944322;29;20070;-78
2023/09/07 07:58:45;;;;;;;9.63;4.65;;;;;;;;;;4943680;29;20031;-78
2023/09/07 08:01:15;;;;;;;9.43;4.60;;;;;;;;;;4944193;28;20032;-79
2023/09/07 08:03:41;;;;;;;19.40;5.38;;;;;;;;;;4936908;29;20035;-78
2023/09/07 08:06:07;;;;;;;8.75;4.72;;;;;;;;;;4927537;29;20112;-78
2023/09/07 08:08:34;;;;;;;10.48;4.10;;;;;;;;;;4945534;29;20040;-77
2023/09/07 08:11:04;;;;;;;8.07;4.40;;;;;;;;;;4932159;29;20042;-79
2023/09/07 08:13:30;;;;;;;9.15;4.00;;;;;;;;;;4947029;29;20027;-79
2023/09/07 08:15:57;;;;;;;8.13;4.63;;;;;;;;;;4949554;29;20094;-78
2023/09/07 08:18:23;;;;;;;9.05;4.90;;;;;;;;;;4951741;29;20467;-78
2023/09/07 08:20:53;;;;;;;8.75;3.90;;;;;;;;;;4945636;29;20062;-78
2023/09/07 08:23:19;;;;;;;10.95;4.40;;;;;;;;;;4950131;29;20074;-79
2023/09/07 08:25:46;;;;;;;7.30;4.15;;;;;;;;;;4949937;29;20538;-78
2023/09/07 08:28:13;;;;;;;10.73;3.80;;;;;;;;;;4963834;29;20099;-78
2023/09/07 08:30:38;;;;;;;8.02;4.18;;;;;;;;;;4962467;28;20070;-77
2023/09/07 08:33:06;;;;;;;9.35;4.18;;;;;;;;;;4959120;28;20507;-77
2023/09/07 08:35:35;;;;;;;;;;;;;;;;;;4940820;29;20630;-77
2023/09/07 08:38:24;;;;;;;10.88;4.55;;;;;;;;;;4955715;29;19910;-77
2023/09/07 08:40:46;;;;;;;9.07;4.55;;;;;;;;;;4956538;28;20074;-76
2023/09/07 08:43:12;;;;;;;13.85;4.57;;;;;;;;;;4922010;29;20051;-76
2023/09/07 08:45:41;;;;;;;14.05;4.70;;;;;;;;;;4945805;29;20367;-77
2023/09/07 08:48:06;;;;;;;;;;;;;;;;;;4954366;28;20187;-77
2023/09/07 08:50:32;;;;;;;7.00;4.38;;;;;;;;;;4939100;29;19910;-77
2023/09/07 08:52:59;;;;;;;8.98;4.47;;;;;;;;;;4939526;29;20027;-77
2023/09/07 08:55:25;;;;;;;9.55;4.78;;;;;;;;;;4940734;29;20035;-77
2023/09/07 08:57:51;;;;;;;8.40;4.07;;;;;;;;;;4958023;28;20039;-77
2023/09/07 09:00:16;;;;;;;7.50;4.13;;;;;;;;;;4956111;29;20077;-77
2023/09/07 09:02:42;;;;;;;7.95;3.80;;;;;;;;;;4956331;28;20129;-77
2023/09/07 09:05:12;;;;;;;9.05;4.40;;;;;;;;;;4924543;29;20042;-76
2023/09/07 09:07:41;;;;;;;9.40;4.85;;;;;;;;;;4956375;29;20395;-76
2023/09/07 09:10:07;;;;;;;7.78;3.95;;;;;;;;;;4931774;29;20531;-77
2023/09/07 09:12:32;;;;;;;6.63;4.15;;;;;;;;;;4968341;28;20420;-77
2023/09/07 09:15:05;;;;;;;6.35;3.78;;;;;;;;;;4956618;29;20038;-76
2023/09/07 09:17:31;;;;;;;10.15;3.83;;;;;;;;;;4925210;29;20102;-76
2023/09/07 09:19:57;;;;;;;7.63;3.70;;;;;;;;;;4945382;29;20440;-76
2023/09/07 09:22:24;;;;;;;7.38;3.58;;;;;;;;;;4950440;29;20035;-77
2023/09/07 09:24:49;;;;;;;7.35;3.78;;;;;;;;;;4955534;29;20103;-77
2023/09/07 09:27:15;;;;;;;7.55;3.70;;;;;;;;;;4954884;28;20126;-77
2023/09/07 09:29:41;;;;;;;12.75;3.75;;;;;;;;;;4938412;29;20118;-77
2023/09/07 09:32:07;;;;;;;11.32;4.32;;;;;;;;;;4954527;29;20026;-76
2023/09/07 09:34:36;;;;;;;5.47;3.45;;;;;;;;;;4955712;28;20042;-76
2023/09/07 09:37:06;;;;;;;5.32;3.70;;;;;;;;;;4939628;29;20121;-76
2023/09/07 09:39:31;;;;;;;9.88;4.65;;;;;;;;;;4955025;28;20054;-77
2023/09/07 09:41:58;;;;;;;8.30;3.83;;;;;;;;;;4955885;28;20039;-76
2023/09/07 09:44:26;;;;;;;8.38;3.80;;;;;;;;;;4957324;28;20451;-77
2023/09/07 09:46:55;;;;;;;8.88;4.80;;;;;;;;;;4956808;28;20122;-77
2023/09/07 09:49:22;;;;;;;9.25;4.20;;;;;;;;;;4961196;28;20498;-77
2023/09/07 09:51:50;;;;;;;6.13;3.75;;;;;;;;;;4959342;29;20047;-78
2023/09/07 09:54:17;;;;;;;7.57;3.58;;;;;;;;;;4958447;29;20042;-77
2023/09/07 09:56:43;;;;;;;15.57;8.35;;;;;;;;;;4949119;29;20062;-78
2023/09/07 09:59:08;;;;;;;6.97;4.20;;;;;;;;;;4962392;28;20499;-77
2023/09/07 10:01:44;;;;;;;9.77;3.80;;;;;;;;;;4963358;28;20057;-78
2023/09/07 10:04:11;;;;;;;7.40;3.38;;;;;;;;;;4957225;28;20051;-77
2023/09/07 10:06:40;;;;;;;6.63;3.47;;;;;;;;;;4955928;29;20088;-77
2023/09/07 10:09:06;;;;;;;11.73;3.63;;;;;;;;;;4939613;29;20031;-77
2023/09/07 10:11:37;;;;;;;7.25;3.80;;;;;;;;;;4940678;28;20020;-77
2023/09/07 10:14:03;;;;;;;6.88;3.80;;;;;;;;;;4948137;29;20023;-78
2023/09/07 10:16:40;;;;;;;5.70;3.63;;;;;;;;;;4931910;29;20032;-77
2023/09/07 10:19:13;;;;;;;8.95;3.85;;;;;;;;;;4939155;29;20059;-78
2023/09/07 10:21:39;;;;;;;7.82;3.53;;;;;;;;;;4954600;29;20039;-78
2023/09/07 10:24:05;;;;;;;8.57;3.78;;;;;;;;;;4956347;29;20039;-77
2023/09/07 10:26:31;;;;;;;5.95;3.30;;;;;;;;;;4955752;29;20036;-77
2023/09/07 10:29:00;;;;;;;6.00;3.70;;;;;;;;;;4956298;28;20038;-77
2023/09/07 10:31:26;;;;;;;5.10;3.40;;;;;;;;;;4959065;28;20034;-78
2023/09/07 10:33:52;;;;;;;8.00;3.38;;;;;;;;;;4928422;29;20028;-77
2023/09/07 10:36:22;;;;;;;6.43;3.00;;;;;;;;;;4950636;29;20039;-78
2023/09/07 10:38:47;;;;;;;7.60;3.28;;;;;;;;;;4940668;29;20121;-77
2023/09/07 10:41:13;;;;;;;6.93;3.40;;;;;;;;;;4958131;29;20019;-78
2023/09/07 10:43:46;;;;;;;5.30;3.20;;;;;;;;;;4960017;29;20032;-77
2023/09/07 10:46:12;;;;;;;6.00;3.40;;;;;;;;;;4960102;28;20031;-78
2023/09/07 10:48:37;;;;;;;5.20;3.35;;;;;;;;;;4962310;28;20035;-77
2023/09/07 10:51:03;;;;;;;6.47;3.17;;;;;;;;;;4944378;29;20042;-78
2023/09/07 10:53:29;;;;;;;5.18;3.22;;;;;;;;;;4928378;29;20034;-78
2023/09/07 10:55:57;;;;;;;6.85;3.10;;;;;;;;;;4942677;29;20031;-79
2023/09/07 10:58:27;;;;;;;6.78;3.00;;;;;;;;;;4934534;29;20043;-78
2023/09/07 11:00:54;;;;;;;5.30;3.30;;;;;;;;;;4981181;28;20126;-76
2023/09/07 11:03:19;;;;;;;6.80;3.50;;;;;;;;;;4964207;29;20023;-79
2023/09/07 11:05:45;;;;;;;5.40;2.90;;;;;;;;;;4960865;28;20495;-78
2023/09/07 11:08:11;;;;;;;7.13;3.20;;;;;;;;;;4959469;28;20094;-79
2023/09/07 11:10:37;;;;;;;6.78;2.97;;;;;;;;;;4962765;29;20031;-78
2023/09/07 11:13:04;;;;;;;7.05;2.90;;;;;;;;;;4964806;29;20042;-79
2023/09/07 11:15:33;;;;;;;6.75;2.90;;;;;;;;;;4935108;29;20031;-78
2023/09/07 11:18:04;;;;;;;6.40;3.33;;;;;;;;;;4951012;29;20039;-77
2023/09/07 11:20:30;;;;;;;5.72;3.20;;;;;;;;;;4966493;28;20079;-78
2023/09/07 11:22:55;;;;;;;7.70;3.10;;;;;;;;;;4967274;29;20043;-80
2023/09/07 11:25:21;;;;;;;5.00;3.08;;;;;;;;;;4962953;29;20103;-78
2023/09/07 11:27:47;;;;;;;5.28;2.97;;;;;;;;;;4965815;28;20031;-80
2023/09/07 11:30:12;;;;;;;4.70;2.85;;;;;;;;;;4956358;29;20031;-79
2023/09/07 11:32:40;;;;;;;5.35;3.05;;;;;;;;;;4950640;29;20525;-79
2023/09/07 11:35:07;;;;;;;4.78;2.78;;;;;;;;;;4967504;29;20094;-78
2023/09/07 11:37:34;;;;;;;4.97;3.00;;;;;;;;;;4966548;28;20043;-79
2023/09/07 11:40:01;;;;;;;6.68;3.58;;;;;;;;;;4970604;29;20062;-79
2023/09/07 11:42:26;;;;;;;5.35;3.10;;;;;;;;;;4937234;29;20027;-79
2023/09/07 11:44:52;;;;;;;4.35;2.67;;;;;;;;;;4956575;29;20031;-79
2023/09/07 11:47:18;;;;;;;5.88;2.67;;;;;;;;;;4956052;29;20122;-79
2023/09/07 11:49:43;;;;;;;5.03;3.35;;;;;;;;;;4973132;29;20055;-78
2023/09/07 11:52:09;;;;;;;4.93;2.67;;;;;;;;;;4974357;28;20050;-78
2023/09/07 11:54:35;;;;;;;4.90;3.00;;;;;;;;;;4985942;28;20037;-78
2023/09/07 11:57:01;;;;;;;6.55;3.28;;;;;;;;;;4953337;29;20039;-83
2023/09/07 11:59:28;;;;;;;16.67;8.80;;;;;;;;;;4931594;29;20074;-78
2023/09/07 12:01:53;;;;;;;4.93;3.72;;;;;;;;;;4959015;29;20024;-77
2023/09/07 12:04:28;;;;;;;7.95;4.47;;;;;;;;;;4960696;28;20050;-75
2023/09/07 12:06:53;;;;;;;7.95;5.80;;;;;;;;;;4959861;28;20425;-77
2023/09/07 12:09:19;;;;;;;6.15;3.80;;;;;;;;;;4961479;28;20030;-76
2023/09/07 12:11:47;;;;;;;8.52;4.32;;;;;;;;;;4959753;29;20110;-76
2023/09/07 12:14:13;;;;;;;6.10;3.58;;;;;;;;;;4961628;29;20480;-76
2023/09/07 12:16:38;;;;;;;4.55;3.28;;;;;;;;;;4961134;28;20535;-77
2023/09/07 12:19:04;;;;;;;6.40;3.50;;;;;;;;;;4955728;28;20047;-77
2023/09/07 12:21:29;;;;;;;6.03;3.10;;;;;;;;;;4941523;29;20028;-77
2023/09/07 12:23:55;;;;;;;4.35;2.78;;;;;;;;;;4957584;29;20032;-77
2023/09/07 12:26:23;;;;;;;5.72;2.80;;;;;;;;;;4941623;29;20106;-75
2023/09/07 12:28:48;;;;;;;4.00;2.47;;;;;;;;;;4953350;29;20460;-76
2023/09/07 12:31:16;;;;;;;5.25;2.65;;;;;;;;;;4938287;29;20032;-76
2023/09/07 12:33:42;;;;;;;6.70;3.03;;;;;;;;;;4952911;29;20107;-76
2023/09/07 12:36:11;;;;;;;26.00;20.02;;;;;;;;;;4961419;29;20459;-78
2023/09/07 12:38:37;;;;;;;11.00;3.35;;;;;;;;;;4940989;29;20036;-80
2023/09/07 12:41:03;;;;;;;10.93;2.92;;;;;;;;;;4927444;29;20036;-78
2023/09/07 12:43:29;;;;;;;11.77;2.70;;;;;;;;;;4926166;29;20122;-78
2023/09/07 12:45:55;;;;;;;5.25;2.47;;;;;;;;;;4939950;29;20035;-79
2023/09/07 12:48:21;;;;;;;6.43;3.05;;;;;;;;;;4939015;29;20027;-79
2023/09/07 12:50:46;;;;;;;5.65;2.80;;;;;;;;;;4941260;29;20023;-77
2023/09/07 12:53:12;;;;;;;7.78;2.88;;;;;;;;;;4940819;29;20047;-78
2023/09/07 12:55:40;;;;;;;4.05;2.22;;;;;;;;;;4948860;28;20114;-79
2023/09/07 12:58:06;;;;;;;5.18;2.40;;;;;;;;;;4963606;28;20031;-79
2023/09/07 13:00:32;;;;;;;5.57;2.60;;;;;;;;;;4945417;29;20032;-79
2023/09/07 13:02:58;;;;;;;9.57;3.10;;;;;;;;;;4946759;29;20087;-79
2023/09/07 13:05:24;;;;;;;4.90;2.30;;;;;;;;;;4946737;29;20040;-80
2023/09/07 13:07:51;;;;;;;4.25;2.53;;;;;;;;;;4946363;29;20024;-79
2023/09/07 13:10:18;;;;;;;7.27;2.57;;;;;;;;;;4946642;29;20428;-80
2023/09/07 13:12:44;;;;;;;;;;;;;;;;;;4947440;29;20055;-80
2023/09/07 13:15:09;;;;;;;5.40;2.30;;;;;;;;;;4944370;28;19963;-79
2023/09/07 13:17:35;;;;;;;3.50;2.40;;;;;;;;;;4960160;29;20382;-79
2023/09/07 13:20:04;;;;;;;4.65;2.25;;;;;;;;;;4982863;28;20506;-79
2023/09/07 13:22:30;;;;;;;6.18;2.40;;;;;;;;;;4981053;28;20098;-79
2023/09/07 13:24:56;;;;;;;3.97;2.47;;;;;;;;;;4967262;28;20367;-80
2023/09/07 13:27:22;;;;;;;4.45;2.47;;;;;;;;;;4966279;28;20439;-79
2023/09/07 13:29:48;;;;;;;5.43;2.70;;;;;;;;;;4965779;28;20591;-80
2023/09/07 13:32:14;;;;;;;4.60;2.25;;;;;;;;;;4982564;28;20083;-79
2023/09/07 13:34:40;;;;;;;5.15;2.38;;;;;;;;;;4953540;29;20027;-80
2023/09/07 13:37:06;;;;;;;4.97;2.63;;;;;;;;;;4946603;29;20090;-80
2023/09/07 13:39:34;;;;;;;8.63;2.60;;;;;;;;;;4946386;29;20035;-80
2023/09/07 13:42:00;;;;;;;5.70;2.63;;;;;;;;;;4947585;29;20215;-79
2023/09/07 13:44:26;;;;;;;8.13;2.53;;;;;;;;;;4945599;29;20035;-80
2023/09/07 13:46:54;;;;;;;7.07;2.70;;;;;;;;;;4942975;29;20113;-78
2023/09/07 13:49:20;;;;;;;5.32;2.35;;;;;;;;;;4945055;29;20027;-80
2023/09/07 13:51:46;;;;;;;5.47;2.45;;;;;;;;;;4943033;29;20422;-79
2023/09/07 13:54:12;;;;;;;5.07;2.45;;;;;;;;;;4924631;29;20028;-79
2023/09/07 13:56:41;;;;;;;4.20;2.50;;;;;;;;;;4926750;29;20047;-79
2023/09/07 13:59:07;;;;;;;6.32;2.60;;;;;;;;;;4944647;29;20027;-79
2023/09/07 14:01:33;;;;;;;5.20;2.33;;;;;;;;;;4958529;29;20107;-79
2023/09/07 14:03:59;;;;;;;6.60;2.53;;;;;;;;;;4944101;29;20123;-80
2023/09/07 14:06:29;;;;;;;8.00;2.47;;;;;;;;;;4943357;29;20034;-80
2023/09/07 14:08:55;;;;;;;6.63;2.50;;;;;;;;;;4942514;29;20035;-78
2023/09/07 14:11:22;;;;;;;7.78;2.97;;;;;;;;;;4943452;29;20042;-78
2023/09/07 14:13:51;;;;;;;4.57;2.17;;;;;;;;;;4959969;29;20042;-79
2023/09/07 14:16:22;;;;;;;4.70;2.47;;;;;;;;;;4960811;28;20042;-79
2023/09/07 14:18:47;;;;;;;6.25;2.47;;;;;;;;;;4964502;29;20045;-79
2023/09/07 14:21:14;;;;;;;5.88;2.40;;;;;;;;;;4966304;28;20058;-80
2023/09/07 14:23:40;;;;;;;5.18;2.83;;;;;;;;;;4963447;29;20178;-80
2023/09/07 14:26:06;;;;;;;3.63;2.10;;;;;;;;;;4945167;29;20055;-79
2023/09/07 14:28:31;;;;;;;6.22;2.40;;;;;;;;;;4961553;28;20068;-79
2023/09/07 14:30:59;;;;;;;4.63;2.55;;;;;;;;;;4962421;29;20037;-80
2023/09/07 14:33:26;;;;;;;6.43;2.55;;;;;;;;;;4957321;28;20052;-79
2023/09/07 14:35:54;;;;;;;6.07;2.63;;;;;;;;;;4954612;29;20041;-79